Grand Junction Regional Airport
KGJT : now visible

Airfield :











YOU CAN JOIN US ON...

 
LOGIN :

Register | Disclaimer

   EN    FR    IT 

 









Legend :    VFR   Marginal VFR   IFR   Intensive IFR   Very Intensive IFR
Visi :
Ceiling :
>= 8 km
>= 3000ft
5 to 8 km
1000 to 3000 ft
1500m to 5 km
500 to 1000 ft
800 to 1500m
200 to 500 ft
< 800m
< 200 ft
Symbols :   Thunderstorms  Fog  Heavy snow  Heavy precipitations  Wind > 20 kt






- Airport Elevation : 4858 ft
- IATA code : GJT


KGJT - Grand Junction Regional

CURRENT METAR :
  • 110953Z AUTO 14010KT 10SM CLR 19/M09 A3021 RMK AO2 SLP149 T01941094

EXPIRED METARs :
  • 110853Z AUTO 10004KT 10SM CLR 18/M08 A3020 RMK AO2 SLP146 T01831078 51009
  • 110753Z AUTO 14005KT 10SM CLR 21/M11 A3020 RMK AO2 SLP146 T02061106

TAF KGJT
Valid from the 11 at 06:00 until the 12 at 06:00 UTC


110540Z 1106/1206 08006KT P6SM FEW250
FM110900 11008KT P6SM FEW250
FM111700 16006KT P6SM FEW250
FM112000 29010KT P6SM FEW150 SCT250
FM120300 07007KT P6SM SCT150
KZDV FIR / North America



MET'MAP, your aeronautical weather chart ! - Copyright ORBIFLY December 2007 - Disclaimer

ORBIFLY MET'MAP TEAM :

Programming & Development : Alexandra Zaïnal
Concept & original design : Baudouin d'Aumeries
Assistance for programming : Marc-Olivier Méhu
Technical & hardware support : Manuel Goepfert

Contact : metmap@orbifly.com




SOURCES & CREDITS :

   NOAA       Earth
Advisory